Townsville, Australia
Current Conditions -  °F | °C
As of 10:00 PM on Sunday 21 Dec 2014 (Local Time) from YBTL Reporting Station
Scattered Clouds Scattered Clouds  
Wind Chill: 82°   Ceiling: Unl
Heat Index: 86°   Visibility: 6mi
Dew Point: 70°   Wind: 14mph
Humidity: 66%   Direction: 110°ESE
Pressure: 29.91"   Gusts: NA
Location:  19.27°S, 146.81°E
Report Text: YBTL 211200Z AUTO 11012KT 9999 // SCT042 28/21 Q1013
Loading
Personal Weather Stations






























Interactive Weather Map New forecast layout! Learn more

10-Day Weather Forecast

Advertisements
Track Severe Weather on mobile